Time;durP1;ratioP1;P1;durP2;ratioP2;P2;SDS_P1;SDS_P2;PMS_P1;PMS_P2;Temp;Humidity;BMP_temperature;BMP_pressure;BME280_temperature;BME280_humidity;BME280_pressure;Samples;Min_cycle;Max_cycle;Signal;HPM_P1;HPM_P2
2022/01/23 00:06:31;;;;;;;11.90;4.73;;;6.40;99.90;;;;;;5042799;28;20124;-72
2022/01/23 00:08:57;;;;;;;12.17;5.37;;;6.40;99.90;;;;;;5042773;28;20050;-72
2022/01/23 00:11:26;;;;;;;16.17;5.07;;;6.40;99.90;;;;;;5044431;28;20345;-73
2022/01/23 00:19:13;;;;;;;9.32;5.00;;;6.40;99.90;;;;;;5043134;28;20067;-73
2022/01/23 00:21:40;;;;;;;13.07;5.20;;;6.40;99.90;;;;;;5043091;28;20065;-73
2022/01/23 00:32:04;;;;;;;8.45;4.15;;;6.40;99.90;;;;;;5042813;28;20064;-73
2022/01/23 00:34:30;;;;;;;9.27;4.03;;;6.40;99.90;;;;;;5042980;28;20045;-73
2022/01/23 00:36:55;;;;;;;14.60;3.80;;;6.40;99.90;;;;;;5044386;28;20168;-73
2022/01/23 00:39:21;;;;;;;14.57;3.57;;;6.40;99.90;;;;;;5042765;28;20080;-73
2022/01/23 00:41:47;;;;;;;8.80;3.67;;;6.40;99.90;;;;;;5043097;28;20111;-74
2022/01/23 00:44:12;;;;;;;9.00;3.70;;;6.40;99.90;;;;;;5026162;28;20054;-73
2022/01/23 00:46:40;;;;;;;10.90;3.72;;;6.40;99.90;;;;;;5044355;28;20057;-73
2022/01/23 00:51:34;;;;;;;10.30;3.40;;;6.40;99.90;;;;;;5042664;28;20049;-73
2022/01/23 00:54:02;;;;;;;12.88;3.20;;;6.40;99.90;;;;;;5042233;28;20111;-73
2022/01/23 00:56:28;;;;;;;7.30;3.17;;;6.40;99.90;;;;;;5042011;28;20895;-73
2022/01/23 00:58:54;;;;;;;4.30;3.00;;;6.40;99.90;;;;;;5042798;28;20049;-73
2022/01/23 01:01:20;;;;;;;7.27;3.40;;;6.40;99.90;;;;;;5054758;28;20044;-73
2022/01/23 01:03:46;;;;;;;8.23;3.38;;;6.40;99.90;;;;;;5062239;28;20048;-73
2022/01/23 01:06:12;;;;;;;8.05;3.88;;;6.40;99.90;;;;;;5047069;28;20037;-73
2022/01/23 01:08:39;;;;;;;12.85;3.65;;;6.40;99.90;;;;;;5041683;28;20515;-72
2022/01/23 01:35:17;;;;;;;10.35;4.20;;;6.40;99.90;;;;;;5044862;28;20049;-73
2022/01/23 01:37:43;;;;;;;9.00;4.20;;;6.40;99.90;;;;;;5041983;28;20121;-73
2022/01/23 01:40:09;;;;;;;11.73;4.15;;;6.40;99.90;;;;;;5043062;28;20033;-73
2022/01/23 01:42:35;;;;;;;11.40;4.43;;;6.40;99.90;;;;;;5041802;28;20148;-73
2022/01/23 01:45:01;;;;;;;12.57;5.10;;;6.40;99.90;;;;;;5049123;28;20409;-73
2022/01/23 01:47:26;;;;;;;11.88;4.53;;;6.40;99.90;;;;;;5022134;28;20042;-73
2022/01/23 01:49:52;;;;;;;9.87;4.73;;;6.40;99.90;;;;;;5031426;28;20127;-73
2022/01/23 01:52:18;;;;;;;6.70;4.37;;;6.40;99.90;;;;;;5025322;28;20312;-73
2022/01/23 01:54:44;;;;;;;9.45;4.50;;;6.40;99.90;;;;;;5040933;28;20060;-73
2022/01/23 01:57:10;;;;;;;9.10;4.80;;;6.40;99.90;;;;;;5024865;28;20049;-73
2022/01/23 02:10:29;;;;;;;16.90;5.03;;;6.30;99.90;;;;;;5040691;28;20065;-73
2022/01/23 02:51:13;;;;;;;8.75;4.68;;;6.30;99.90;;;;;;5041075;28;20060;-72
2022/01/23 02:54:07;;;;;;;12.97;5.30;;;6.30;99.90;;;;;;5026439;28;20072;-73
2022/01/23 02:56:33;;;;;;;9.65;4.15;;;6.30;99.90;;;;;;5040059;28;20053;-73
2022/01/23 02:59:00;;;;;;;6.60;4.07;;;6.30;99.90;;;;;;5040803;28;20042;-73
2022/01/23 03:01:32;;;;;;;10.82;4.63;;;6.30;99.90;;;;;;5042208;28;20198;-73
2022/01/23 03:04:07;;;;;;;15.18;4.72;;;6.30;99.90;;;;;;5042035;28;20068;-73
2022/01/23 03:30:02;;;;;;;10.60;4.50;;;6.30;99.90;;;;;;5040157;28;20433;-73
2022/01/23 03:32:38;;;;;;;17.85;5.05;;;6.30;99.90;;;;;;5022606;28;20069;-73
2022/01/23 03:35:05;;;;;;;11.98;4.63;;;6.30;99.90;;;;;;5040063;28;20159;-73
2022/01/23 03:37:31;;;;;;;8.68;4.80;;;6.30;99.90;;;;;;5040130;28;20069;-73
2022/01/23 03:39:57;;;;;;;10.88;4.38;;;6.30;99.90;;;;;;5041414;28;20057;-73
2022/01/23 03:42:24;;;;;;;12.67;4.93;;;6.30;99.90;;;;;;5045580;28;20065;-73
2022/01/23 03:47:39;;;;;;;7.93;4.60;;;6.30;99.90;;;;;;5044210;28;20126;-74
2022/01/23 03:50:08;;;;;;;10.02;4.93;;;6.30;99.90;;;;;;5044035;28;20049;-74
2022/01/23 03:52:34;;;;;;;7.95;4.80;;;6.30;99.90;;;;;;5043615;28;20053;-74
2022/01/23 03:55:03;;;;;;;8.15;4.50;;;6.30;99.90;;;;;;5045186;28;20041;-74
2022/01/23 03:57:29;;;;;;;13.05;5.18;;;6.30;99.90;;;;;;5043949;28;20137;-73
2022/01/23 03:59:54;;;;;;;9.07;4.57;;;6.30;99.90;;;;;;5040326;28;20041;-73
2022/01/23 04:02:20;;;;;;;9.77;4.20;;;6.30;99.90;;;;;;5025401;28;20112;-73
2022/01/23 04:04:46;;;;;;;10.25;4.57;;;6.30;99.90;;;;;;5042773;28;20358;-74
2022/01/23 04:07:25;;;;;;;9.38;4.72;;;6.30;99.90;;;;;;5027110;28;20041;-73
2022/01/23 04:09:51;;;;;;;10.77;5.28;;;6.30;99.90;;;;;;5043927;28;20057;-73
2022/01/23 04:12:36;;;;;;;11.20;4.50;;;6.30;99.90;;;;;;5045163;28;20084;-73
2022/01/23 04:16:05;;;;;;;11.80;5.75;;;6.30;99.90;;;;;;5043116;28;20041;-74
2022/01/23 04:21:01;;;;;;;11.77;5.20;;;6.20;99.90;;;;;;5040281;28;20042;-74
2022/01/23 04:32:05;;;;;;;9.68;4.88;;;6.20;99.90;;;;;;5044515;28;20084;-74
2022/01/23 04:45:31;;;;;;;9.30;4.72;;;6.30;99.90;;;;;;5043026;28;20128;-73
2022/01/23 05:01:51;;;;;;;7.90;4.75;;;6.30;99.90;;;;;;5042524;28;20052;-73
2022/01/23 05:06:46;;;;;;;8.40;4.70;;;6.20;99.90;;;;;;5042280;28;20060;-73
2022/01/23 05:09:13;;;;;;;10.45;5.15;;;6.20;99.90;;;;;;5041708;28;20124;-73
2022/01/23 05:11:46;;;;;;;10.13;5.28;;;6.20;99.90;;;;;;5038887;28;20129;-73
2022/01/23 05:14:12;;;;;;;9.50;5.10;;;6.20;99.90;;;;;;5026892;28;20109;-73
2022/01/23 05:16:38;;;;;;;13.20;4.95;;;6.30;99.90;;;;;;5042050;28;20056;-74
2022/01/23 05:19:05;;;;;;;10.00;4.80;;;6.20;99.90;;;;;;5042349;28;20049;-73
2022/01/23 05:24:39;;;;;;;11.35;6.15;;;6.20;99.90;;;;;;5064214;28;20152;-73
2022/01/23 05:27:07;;;;;;;10.48;5.55;;;6.20;99.90;;;;;;5044848;28;20045;-73
2022/01/23 05:29:34;;;;;;;11.90;6.22;;;6.20;99.90;;;;;;5044433;28;20084;-73
2022/01/23 05:32:01;;;;;;;15.55;6.25;;;6.20;99.90;;;;;;5051067;28;20045;-73
2022/01/23 05:34:27;;;;;;;10.00;5.80;;;6.20;99.90;;;;;;5049739;28;20060;-73
2022/01/23 05:36:53;;;;;;;10.55;6.05;;;6.20;99.90;;;;;;5077709;28;20101;-73
2022/01/23 05:39:22;;;;;;;9.73;5.43;;;6.20;99.90;;;;;;5073454;28;20064;-73
2022/01/23 05:41:53;;;;;;;10.30;5.65;;;6.20;99.90;;;;;;5061026;28;20154;-73
2022/01/23 05:44:19;;;;;;;11.27;5.90;;;6.20;99.90;;;;;;5060806;28;20047;-74
2022/01/23 05:46:45;;;;;;;10.85;5.78;;;6.20;99.90;;;;;;5061092;28;20049;-73
2022/01/23 05:49:11;;;;;;;9.70;5.78;;;6.20;99.90;;;;;;5061426;28;20057;-73
2022/01/23 05:51:36;;;;;;;7.67;5.70;;;6.20;99.90;;;;;;5063579;28;20059;-73
2022/01/23 05:54:02;;;;;;;9.80;5.77;;;6.20;99.90;;;;;;5057240;28;20319;-73
2022/01/23 05:56:28;;;;;;;8.18;5.53;;;6.20;99.90;;;;;;5041364;28;20089;-73
2022/01/23 05:58:54;;;;;;;13.10;6.00;;;6.20;99.90;;;;;;5025005;28;20095;-73
2022/01/23 06:01:20;;;;;;;9.88;6.15;;;6.20;99.90;;;;;;5041235;28;20046;-73
2022/01/23 06:03:46;;;;;;;12.80;5.82;;;6.20;99.90;;;;;;5041308;28;20045;-74
2022/01/23 06:06:11;;;;;;;9.18;6.30;;;6.20;99.90;;;;;;5042923;28;20144;-74
2022/01/23 06:08:37;;;;;;;8.73;5.23;;;6.20;99.90;;;;;;5040848;28;20045;-74
2022/01/23 06:11:03;;;;;;;10.98;5.93;;;6.10;99.90;;;;;;5040867;28;20346;-74
2022/01/23 06:13:31;;;;;;;10.82;5.63;;;6.10;99.90;;;;;;5042606;28;20062;-73
2022/01/23 06:15:56;;;;;;;11.65;5.57;;;6.10;99.90;;;;;;5041056;28;20570;-74
2022/01/23 06:18:22;;;;;;;7.78;5.15;;;6.10;99.90;;;;;;5041192;28;20102;-74
2022/01/23 06:20:48;;;;;;;7.40;5.00;;;6.10;99.90;;;;;;5040933;28;20244;-74
2022/01/23 06:23:14;;;;;;;8.83;5.57;;;6.10;99.90;;;;;;5040632;28;20288;-74
2022/01/23 06:25:45;;;;;;;9.40;5.13;;;6.10;99.90;;;;;;5042775;28;20057;-73
2022/01/23 06:28:29;;;;;;;11.20;5.95;;;6.10;99.90;;;;;;5042454;28;20044;-74
2022/01/23 06:30:54;;;;;;;9.07;5.13;;;6.10;99.90;;;;;;5042452;28;20345;-74
2022/01/23 06:33:20;;;;;;;11.17;4.90;;;6.10;99.90;;;;;;5042184;28;20042;-74
2022/01/23 06:35:47;;;;;;;11.50;5.45;;;6.10;99.90;;;;;;5040544;28;20292;-74
2022/01/23 06:38:13;;;;;;;9.65;4.80;;;6.10;99.90;;;;;;5040082;28;20543;-73
2022/01/23 06:40:38;;;;;;;10.73;5.17;;;6.10;99.90;;;;;;5040695;28;20083;-74
2022/01/23 06:43:04;;;;;;;8.00;4.97;;;6.10;99.90;;;;;;5040492;28;20056;-73
2022/01/23 06:45:30;;;;;;;6.93;4.77;;;6.10;99.90;;;;;;5040737;28;20053;-73
2022/01/23 06:47:55;;;;;;;8.17;4.63;;;6.10;99.90;;;;;;5040572;28;20045;-73
2022/01/23 06:50:21;;;;;;;7.27;4.87;;;6.10;99.90;;;;;;5023949;28;20354;-73
2022/01/23 06:52:47;;;;;;;9.27;5.13;;;6.10;99.90;;;;;;5024702;28;20094;-73
2022/01/23 06:55:12;;;;;;;9.23;5.20;;;6.10;99.90;;;;;;5041976;28;20041;-73
2022/01/23 06:57:38;;;;;;;8.60;4.83;;;6.10;99.90;;;;;;5040857;28;20053;-73
2022/01/23 07:00:05;;;;;;;9.98;5.35;;;6.10;99.90;;;;;;5023899;28;20049;-73
2022/01/23 07:02:31;;;;;;;7.72;5.07;;;6.10;99.90;;;;;;5024185;28;20046;-73
2022/01/23 07:04:57;;;;;;;6.07;4.78;;;6.10;99.90;;;;;;5042596;28;20187;-72
2022/01/23 07:07:22;;;;;;;10.43;5.10;;;6.10;99.90;;;;;;5039194;28;20049;-72
2022/01/23 07:09:48;;;;;;;9.23;5.40;;;6.10;99.90;;;;;;5046653;28;20120;-73
2022/01/23 07:12:14;;;;;;;6.97;5.20;;;6.10;99.90;;;;;;5054436;28;20049;-73
2022/01/23 07:14:39;;;;;;;11.17;5.03;;;6.10;99.90;;;;;;5047549;28;20296;-69
2022/01/23 07:17:05;;;;;;;10.17;5.33;;;6.10;99.90;;;;;;5064069;28;20134;-72
2022/01/23 07:19:31;;;;;;;10.85;5.45;;;6.10;99.90;;;;;;5057601;28;20080;-71
2022/01/23 07:21:56;;;;;;;9.67;6.10;;;6.10;99.90;;;;;;5064539;28;20048;-70
2022/01/23 07:24:23;;;;;;;8.60;5.93;;;6.10;99.90;;;;;;5050684;28;20107;-76
2022/01/23 07:26:49;;;;;;;11.70;6.72;;;6.00;99.90;;;;;;5026191;28;20105;-71
2022/01/23 07:29:16;;;;;;;12.88;5.75;;;6.00;99.90;;;;;;5034265;28;20082;-71
2022/01/23 07:31:55;;;;;;;10.07;6.65;;;6.10;99.90;;;;;;5050817;28;20060;-71
2022/01/23 07:34:21;;;;;;;9.82;6.43;;;6.10;99.90;;;;;;5046008;28;20463;-71
2022/01/23 07:36:47;;;;;;;9.10;6.37;;;6.00;99.90;;;;;;5048203;28;20045;-69
2022/01/23 07:39:12;;;;;;;11.13;5.78;;;6.10;99.90;;;;;;5051005;28;20296;-73
2022/01/23 07:41:38;;;;;;;7.40;5.73;;;6.00;99.90;;;;;;5044243;28;20049;-72
2022/01/23 07:44:04;;;;;;;10.20;5.90;;;6.00;99.90;;;;;;5045398;28;20276;-75
2022/01/23 07:46:30;;;;;;;8.85;5.65;;;6.00;99.90;;;;;;5048150;28;20044;-78
2022/01/23 07:48:56;;;;;;;9.33;5.77;;;6.00;99.90;;;;;;5054671;28;20079;-75
2022/01/23 07:51:22;;;;;;;7.70;5.50;;;6.00;99.90;;;;;;5050594;28;20057;-76
2022/01/23 07:53:47;;;;;;;8.43;6.03;;;6.00;99.90;;;;;;5055032;28;20091;-78
2022/01/23 07:56:13;;;;;;;7.95;5.82;;;5.90;99.90;;;;;;5031479;28;20042;-74
2022/01/23 07:58:39;;;;;;;9.45;6.00;;;5.90;99.90;;;;;;5047531;28;20056;-78
2022/01/23 08:01:05;;;;;;;8.43;6.33;;;5.90;99.90;;;;;;5037647;28;20492;-79
2022/01/23 08:03:30;;;;;;;9.23;6.37;;;5.90;99.90;;;;;;5053236;28;20315;-78
2022/01/23 08:05:56;;;;;;;10.73;6.80;;;5.90;99.90;;;;;;5051870;28;20056;-77
2022/01/23 08:08:22;;;;;;;10.80;7.00;;;5.80;99.90;;;;;;5052462;28;20315;-72
2022/01/23 08:10:47;;;;;;;10.07;6.37;;;5.80;99.90;;;;;;5042001;28;20091;-66
2022/01/23 08:13:13;;;;;;;9.80;6.73;;;5.80;99.90;;;;;;5048524;28;20093;-76
2022/01/23 08:15:39;;;;;;;11.43;6.67;;;5.80;99.90;;;;;;5033573;28;20164;-74
2022/01/23 08:18:07;;;;;;;10.70;6.75;;;5.80;99.90;;;;;;5039449;28;20053;-73
2022/01/23 08:20:33;;;;;;;11.38;6.43;;;5.80;99.90;;;;;;5051031;28;20051;-72
2022/01/23 08:23:04;;;;;;;11.40;6.72;;;5.80;99.90;;;;;;5041658;28;20049;-72
2022/01/23 08:25:31;;;;;;;14.68;7.10;;;5.80;99.90;;;;;;5042102;28;20143;-77
2022/01/23 08:27:57;;;;;;;12.60;6.60;;;5.80;99.90;;;;;;5041973;28;20041;-76
2022/01/23 08:30:24;;;;;;;14.90;6.47;;;5.80;99.90;;;;;;5041267;28;20053;-70
2022/01/23 08:32:50;;;;;;;8.13;5.88;;;5.80;99.90;;;;;;5042691;28;20044;-76
2022/01/23 08:35:16;;;;;;;;;;;5.80;99.90;;;;;;5044586;28;20045;-77
2022/01/23 09:06:55;;;;;;;8.63;6.10;;;6.30;99.90;;;;;;5044128;28;20044;-74
2022/01/23 09:09:23;;;;;;;9.10;6.00;;;6.30;99.90;;;;;;5040698;28;20067;-67
2022/01/23 09:14:17;;;;;;;8.82;5.93;;;6.40;99.90;;;;;;5037798;28;20052;-67
2022/01/23 09:16:44;;;;;;;9.02;5.95;;;6.40;99.90;;;;;;5040539;28;20113;-63
2022/01/23 09:19:10;;;;;;;9.60;6.47;;;6.50;99.90;;;;;;5024447;28;20060;-63
2022/01/23 09:21:37;;;;;;;8.95;5.40;;;6.50;99.90;;;;;;5041914;28;20088;-63
2022/01/23 09:24:04;;;;;;;8.50;5.07;;;6.60;99.90;;;;;;5041805;28;20064;-66
2022/01/23 09:26:31;;;;;;;7.95;5.25;;;6.60;99.90;;;;;;5041072;28;20100;-66
2022/01/23 09:29:00;;;;;;;7.68;5.45;;;6.60;99.90;;;;;;5041724;28;20167;-66
2022/01/23 09:31:46;;;;;;;8.00;5.32;;;6.60;99.90;;;;;;5044276;28;20087;-66
2022/01/23 09:34:12;;;;;;;7.85;6.07;;;6.70;99.90;;;;;;5041142;28;20152;-67
2022/01/23 09:36:37;;;;;;;8.85;5.20;;;6.60;99.90;;;;;;5047912;28;20049;-65
2022/01/23 09:39:04;;;;;;;10.87;5.50;;;6.70;99.90;;;;;;5042521;28;20421;-67
2022/01/23 09:41:32;;;;;;;7.10;5.10;;;6.70;99.90;;;;;;5039656;28;20124;-67
2022/01/23 09:44:00;;;;;;;8.38;5.75;;;6.70;99.90;;;;;;5021515;28;20045;-67
2022/01/23 09:46:27;;;;;;;7.55;5.63;;;6.70;99.90;;;;;;5042208;28;20056;-67
2022/01/23 09:48:53;;;;;;;;;;;6.80;99.90;;;;;;5040356;28;20041;-66
2022/01/23 09:51:22;;;;;;;7.57;4.85;;;6.80;99.90;;;;;;5040780;28;19991;-67
2022/01/23 09:53:53;;;;;;;6.57;5.00;;;6.80;99.90;;;;;;5040147;28;20061;-67
2022/01/23 09:56:26;;;;;;;8.15;5.40;;;6.90;99.90;;;;;;5044339;28;20045;-68
2022/01/23 09:58:53;;;;;;;6.78;4.57;;;7.00;99.90;;;;;;5039441;28;20070;-66
2022/01/23 10:01:20;;;;;;;5.68;4.40;;;7.00;99.90;;;;;;5024996;28;20480;-66
2022/01/23 10:03:46;;;;;;;7.90;4.28;;;7.00;99.90;;;;;;5041201;28;20045;-67
2022/01/23 10:06:12;;;;;;;7.00;4.35;;;7.10;99.90;;;;;;5040316;28;20555;-67
2022/01/23 10:08:39;;;;;;;5.10;3.88;;;7.10;99.90;;;;;;5039379;28;20114;-67
2022/01/23 10:11:09;;;;;;;6.15;4.25;;;7.10;99.90;;;;;;5024095;28;20094;-67
2022/01/23 10:13:36;;;;;;;5.53;4.35;;;7.10;99.90;;;;;;5057277;28;20107;-67
2022/01/23 10:16:03;;;;;;;5.63;3.75;;;7.10;99.90;;;;;;5039883;28;20090;-67
2022/01/23 10:18:28;;;;;;;;;;;7.20;99.90;;;;;;5041373;28;20045;-67
2022/01/23 10:20:55;;;;;;;5.75;3.85;;;7.10;99.90;;;;;;5041265;28;20371;-67
2022/01/23 10:23:21;;;;;;;4.82;3.17;;;7.10;99.90;;;;;;5040521;28;20052;-67
2022/01/23 10:25:48;;;;;;;2.63;1.85;;;7.20;99.90;;;;;;5041058;28;20053;-67
2022/01/23 10:28:18;;;;;;;3.00;2.20;;;7.30;99.90;;;;;;5039579;28;20148;-67
2022/01/23 10:30:51;;;;;;;3.42;2.50;;;7.30;99.90;;;;;;5038621;28;20345;-67
2022/01/23 10:33:18;;;;;;;2.97;2.38;;;7.30;99.90;;;;;;5040633;28;20038;-66
2022/01/23 10:36:10;;;;;;;6.22;2.92;;;7.40;99.90;;;;;;5039835;28;20049;-67
2022/01/23 10:39:03;;;;;;;3.88;2.35;;;7.30;99.90;;;;;;5039382;28;20218;-67
2022/01/23 10:49:48;;;;;;;5.00;2.42;;;7.30;99.90;;;;;;5037647;28;20164;-65
2022/01/23 10:52:29;;;;;;;;;;;7.40;99.90;;;;;;5041945;28;20121;-67
2022/01/23 10:54:56;;;;;;;4.57;2.55;;;7.30;99.90;;;;;;5057565;28;19928;-64
2022/01/23 10:57:21;;;;;;;;;;;7.40;99.90;;;;;;5040944;28;20076;-68
2022/01/23 10:59:49;;;;;;;3.88;2.00;;;7.30;99.90;;;;;;5022622;28;19924;-66
2022/01/23 11:02:21;;;;;;;2.78;2.10;;;7.40;99.90;;;;;;5039510;28;20044;-69
2022/01/23 11:04:53;;;;;;;3.38;2.45;;;7.40;99.90;;;;;;5038902;28;20141;-65
2022/01/23 11:07:19;;;;;;;3.35;2.83;;;7.40;99.90;;;;;;5037146;28;20046;-69
2022/01/23 11:09:45;;;;;;;;;;;7.40;99.90;;;;;;5038878;28;20044;-64
2022/01/23 11:12:41;;;;;;;2.95;1.70;;;7.30;99.90;;;;;;5046613;28;20439;-70
2022/01/23 11:17:55;;;;;;;3.35;2.20;;;7.40;99.90;;;;;;5038717;28;20190;-67
2022/01/23 11:20:40;;;;;;;3.50;2.17;;;7.40;99.90;;;;;;5044262;28;20041;-67
2022/01/23 11:23:31;;;;;;;3.33;2.20;;;7.40;99.90;;;;;;5039134;28;20088;-66
2022/01/23 11:25:57;;;;;;;3.53;2.20;;;7.50;99.90;;;;;;5039171;28;20069;-67
2022/01/23 11:28:36;;;;;;;3.43;2.37;;;7.50;99.90;;;;;;5038392;28;20064;-66
2022/01/23 11:31:04;;;;;;;3.17;2.65;;;7.50;99.90;;;;;;5040510;28;20049;-67
2022/01/23 11:33:30;;;;;;;3.60;2.80;;;7.60;99.90;;;;;;5039613;28;20651;-66
2022/01/23 11:35:56;;;;;;;3.80;2.47;;;7.60;99.90;;;;;;5039338;28;20057;-67
2022/01/23 11:38:24;;;;;;;4.30;2.88;;;7.60;99.90;;;;;;5038677;28;20119;-69
2022/01/23 11:54:37;;;;;;;3.83;2.70;;;7.60;99.90;;;;;;5042135;28;20087;-68
2022/01/23 11:57:03;;;;;;;4.35;2.70;;;7.60;99.90;;;;;;5022350;28;20068;-68
2022/01/23 11:59:34;;;;;;;;;;;7.70;99.90;;;;;;5040045;28;20052;-69
2022/01/23 12:02:30;;;;;;;4.07;2.63;;;7.60;99.90;;;;;;5039915;28;20502;-68
2022/01/23 12:05:16;;;;;;;5.72;3.33;;;7.70;99.90;;;;;;5043121;28;20191;-68
2022/01/23 12:07:44;;;;;;;4.15;2.75;;;7.70;99.90;;;;;;5043909;28;20045;-67
2022/01/23 12:10:24;;;;;;;5.68;2.70;;;7.80;99.90;;;;;;5040990;28;20986;-69
2022/01/23 12:13:13;;;;;;;3.85;2.58;;;7.90;99.90;;;;;;5041502;28;20092;-66
2022/01/23 12:18:37;;;;;;;3.55;2.45;;;7.90;99.90;;;;;;5042937;28;20041;-66
2022/01/23 12:21:02;;;;;;;4.23;2.63;;;7.90;99.90;;;;;;5042440;28;20117;-68
2022/01/23 12:23:28;;;;;;;3.88;2.50;;;7.90;99.90;;;;;;5043281;28;20053;-65
2022/01/23 12:25:57;;;;;;;4.10;2.50;;;7.90;99.90;;;;;;5043409;28;20073;-69
2022/01/23 12:28:43;;;;;;;5.40;3.08;;;8.00;99.90;;;;;;5043025;28;20320;-69
2022/01/23 12:31:14;;;;;;;4.68;3.00;;;8.00;99.90;;;;;;5042498;28;20071;-69
2022/01/23 12:33:40;;;;;;;3.53;2.78;;;8.00;99.90;;;;;;5040051;28;20057;-68
2022/01/23 12:36:15;;;;;;;3.63;2.73;;;7.90;99.90;;;;;;5043244;28;20166;-67
2022/01/23 12:38:44;;;;;;;5.10;2.72;;;7.90;99.90;;;;;;5041090;28;20045;-69
2022/01/23 12:41:14;;;;;;;3.33;2.67;;;7.90;99.90;;;;;;5023785;28;20089;-69
2022/01/23 12:43:40;;;;;;;3.40;2.67;;;7.90;99.90;;;;;;5043108;28;20042;-70
2022/01/23 12:46:08;;;;;;;3.97;2.55;;;7.90;99.90;;;;;;5043281;28;20179;-65
2022/01/23 12:48:37;;;;;;;3.95;2.67;;;7.90;99.90;;;;;;5041925;28;20041;-69
2022/01/23 12:51:27;;;;;;;4.82;2.50;;;7.90;99.90;;;;;;5028070;28;20950;-68
2022/01/23 12:53:53;;;;;;;3.60;2.65;;;7.90;99.90;;;;;;5043569;28;20064;-69
2022/01/23 12:56:24;;;;;;;4.20;2.70;;;7.90;99.90;;;;;;5049484;28;20037;-68
2022/01/23 12:59:04;;;;;;;5.30;2.85;;;7.90;99.90;;;;;;5043623;28;20147;-68
2022/01/23 13:01:30;;;;;;;4.55;2.80;;;7.90;99.90;;;;;;5042691;28;20048;-72
2022/01/23 13:03:58;;;;;;;5.40;2.63;;;7.90;99.90;;;;;;5058454;28;20049;-65
2022/01/23 13:06:30;;;;;;;4.90;2.85;;;7.90;99.90;;;;;;5040158;28;20064;-69
2022/01/23 13:17:51;;;;;;;5.30;3.05;;;7.90;99.90;;;;;;5042138;28;20096;-67
2022/01/23 13:31:43;;;;;;;4.20;3.08;;;7.90;99.90;;;;;;5045477;28;20111;-67
2022/01/23 13:34:33;;;;;;;3.88;2.90;;;7.90;99.90;;;;;;5045238;28;20056;-66
2022/01/23 13:37:14;;;;;;;5.40;3.10;;;7.90;99.90;;;;;;5025493;28;20335;-68
2022/01/23 13:39:50;;;;;;;5.35;3.20;;;7.80;99.90;;;;;;5040583;28;20060;-67
2022/01/23 13:48:06;;;;;;;5.50;3.15;;;7.80;99.90;;;;;;5042045;28;20051;-66
2022/01/23 13:53:35;;;;;;;4.57;3.63;;;7.80;99.90;;;;;;5054955;28;20063;-65
2022/01/23 13:58:41;;;;;;;6.13;4.15;;;7.80;99.90;;;;;;5057786;28;20064;-68
2022/01/23 14:01:30;;;;;;;8.32;3.83;;;7.80;99.90;;;;;;5037304;28;20052;-66
2022/01/23 14:03:56;;;;;;;9.07;4.15;;;7.80;99.90;;;;;;5040940;28;20172;-65
2022/01/23 14:06:22;;;;;;;7.07;4.82;;;7.80;99.90;;;;;;5058556;28;20049;-66
2022/01/23 14:09:09;;;;;;;6.45;4.18;;;7.80;99.90;;;;;;5037321;28;20192;-66
2022/01/23 14:11:35;;;;;;;7.63;3.90;;;7.70;99.90;;;;;;5034500;28;20122;-66
2022/01/23 14:14:24;;;;;;;5.93;4.00;;;7.70;99.90;;;;;;5057742;28;20052;-66
2022/01/23 14:16:52;;;;;;;4.80;3.80;;;7.70;99.90;;;;;;5038921;28;20065;-67
2022/01/23 14:19:21;;;;;;;5.10;3.83;;;7.70;99.90;;;;;;5025227;28;20049;-66
2022/01/23 14:21:49;;;;;;;5.60;4.10;;;7.70;99.90;;;;;;5039853;28;20407;-67
2022/01/23 14:24:32;;;;;;;7.57;5.03;;;7.70;99.90;;;;;;5038277;28;20087;-66
2022/01/23 14:27:06;;;;;;;14.35;8.23;;;7.70;99.90;;;;;;5039816;28;20048;-66
2022/01/23 14:29:55;;;;;;;7.20;5.05;;;7.70;99.90;;;;;;5036483;28;20651;-67
2022/01/23 14:32:39;;;;;;;5.28;4.05;;;7.70;99.90;;;;;;5041507;28;20049;-66
2022/01/23 14:35:07;;;;;;;8.52;4.57;;;7.70;99.90;;;;;;5039968;28;20107;-65
2022/01/23 14:37:33;;;;;;;7.25;4.30;;;7.60;99.90;;;;;;5039463;28;20106;-65
2022/01/23 14:40:27;;;;;;;10.60;4.80;;;7.60;99.90;;;;;;5039309;28;20059;-67
2022/01/23 14:43:10;;;;;;;6.55;4.70;;;7.60;99.90;;;;;;5038921;28;20049;-67
2022/01/23 14:45:46;;;;;;;8.80;4.55;;;7.60;99.90;;;;;;5041786;28;20114;-67
2022/01/23 14:48:13;;;;;;;8.50;4.68;;;7.60;99.90;;;;;;5021791;28;20037;-66
2022/01/23 14:50:43;;;;;;;7.53;5.13;;;7.60;99.90;;;;;;5038068;28;20064;-67
2022/01/23 14:53:20;;;;;;;9.88;4.82;;;7.60;99.90;;;;;;5040497;28;20053;-66
2022/01/23 14:55:50;;;;;;;8.18;5.15;;;7.60;99.90;;;;;;5040198;28;20056;-66
2022/01/23 14:58:19;;;;;;;8.32;6.30;;;7.60;99.90;;;;;;5038385;28;20052;-66
2022/01/23 15:00:46;;;;;;;7.40;6.43;;;7.60;99.90;;;;;;5048938;28;20103;-66
2022/01/23 15:03:12;;;;;;;7.72;5.03;;;7.60;99.90;;;;;;5038640;28;20438;-67
2022/01/23 15:05:39;;;;;;;7.45;5.82;;;7.60;99.90;;;;;;5039489;28;20060;-67
2022/01/23 15:08:08;;;;;;;9.70;4.32;;;7.60;99.90;;;;;;5037402;28;20690;-67
2022/01/23 15:10:39;;;;;;;5.65;4.20;;;7.60;99.90;;;;;;5038952;28;20046;-67
2022/01/23 15:13:05;;;;;;;7.28;4.32;;;7.50;99.90;;;;;;5037832;28;20057;-67
2022/01/23 15:15:32;;;;;;;6.47;4.13;;;7.50;99.90;;;;;;5038732;28;20046;-67
2022/01/23 15:17:58;;;;;;;7.85;4.85;;;7.50;99.90;;;;;;5040215;28;20049;-67
2022/01/23 15:20:24;;;;;;;7.90;4.47;;;7.60;99.90;;;;;;5051300;28;20048;-68
2022/01/23 15:22:50;;;;;;;6.70;4.75;;;7.50;99.90;;;;;;5039967;28;20041;-67
2022/01/23 15:25:18;;;;;;;8.00;4.70;;;7.50;99.90;;;;;;5039858;28;20144;-68
2022/01/23 15:27:45;;;;;;;8.13;4.90;;;7.50;99.90;;;;;;5039922;28;20049;-68
2022/01/23 15:30:16;;;;;;;7.45;4.88;;;7.50;99.90;;;;;;5040032;28;20057;-68
2022/01/23 15:32:42;;;;;;;5.82;4.65;;;7.50;99.90;;;;;;5039830;28;20085;-68
2022/01/23 15:35:08;;;;;;;6.32;4.50;;;7.50;99.90;;;;;;5039831;28;20045;-68
2022/01/23 15:37:34;;;;;;;7.95;5.82;;;7.50;99.90;;;;;;5041233;28;20137;-65
2022/01/23 15:40:00;;;;;;;11.07;7.15;;;7.50;99.90;;;;;;5042161;28;20457;-65
2022/01/23 15:42:26;;;;;;;8.30;5.80;;;7.50;99.90;;;;;;5044130;28;20092;-67
2022/01/23 15:44:52;;;;;;;14.70;8.55;;;7.50;99.90;;;;;;5041539;28;20296;-67
2022/01/23 15:47:18;;;;;;;11.90;5.65;;;7.40;99.90;;;;;;5043619;28;20064;-67
2022/01/23 15:49:43;;;;;;;7.75;5.20;;;7.40;99.90;;;;;;5043335;28;20049;-69
2022/01/23 15:52:10;;;;;;;14.63;6.63;;;7.40;99.90;;;;;;5044982;28;20049;-68
2022/01/23 15:54:36;;;;;;;8.68;5.50;;;7.40;99.90;;;;;;5043653;28;20052;-68
2022/01/23 15:57:03;;;;;;;9.55;4.78;;;7.40;99.90;;;;;;5025272;28;20110;-68
2022/01/23 15:59:29;;;;;;;11.15;7.28;;;7.40;99.90;;;;;;5043323;28;20050;-68
2022/01/23 16:01:55;;;;;;;9.25;5.97;;;7.40;99.90;;;;;;5043587;28;20052;-69
2022/01/23 16:04:22;;;;;;;9.32;5.72;;;7.40;99.90;;;;;;5041972;28;20156;-69
2022/01/23 16:06:48;;;;;;;7.13;4.75;;;7.40;99.90;;;;;;5041797;28;20128;-69
2022/01/23 16:09:14;;;;;;;6.40;3.70;;;7.40;99.90;;;;;;5043217;28;20038;-70
2022/01/23 16:11:41;;;;;;;5.43;3.60;;;7.40;99.90;;;;;;5041142;28;20045;-70
2022/01/23 16:14:07;;;;;;;7.22;3.30;;;7.30;99.90;;;;;;5043487;28;20069;-70
2022/01/23 16:16:33;;;;;;;8.00;3.22;;;7.30;99.90;;;;;;5043647;28;20045;-67
2022/01/23 16:18:59;;;;;;;7.32;3.50;;;7.30;99.90;;;;;;5043451;28;20104;-67
2022/01/23 16:21:26;;;;;;;38.53;22.40;;;7.30;99.90;;;;;;5041749;28;20656;-73
2022/01/23 16:23:52;;;;;;;9.32;5.13;;;7.30;99.90;;;;;;5041455;28;20088;-70
2022/01/23 16:26:19;;;;;;;10.98;5.90;;;7.30;99.90;;;;;;5041590;28;20163;-73
2022/01/23 16:28:46;;;;;;;9.50;6.88;;;7.30;99.90;;;;;;5045105;28;20115;-65
2022/01/23 16:31:12;;;;;;;8.88;6.30;;;7.30;99.90;;;;;;5042151;28;21953;-67
2022/01/23 16:33:38;;;;;;;17.88;10.15;;;7.30;99.90;;;;;;5041988;28;20054;-65
2022/01/23 16:36:06;;;;;;;13.38;6.22;;;7.20;99.90;;;;;;5043288;28;20115;-67
2022/01/23 16:38:35;;;;;;;9.02;5.50;;;7.30;99.90;;;;;;5047358;28;20065;-66
2022/01/23 16:41:02;;;;;;;13.43;7.97;;;7.30;99.90;;;;;;5042320;28;20498;-68
2022/01/23 16:43:30;;;;;;;9.57;5.63;;;7.30;99.90;;;;;;5042732;28;20140;-61
2022/01/23 16:45:58;;;;;;;19.15;10.75;;;7.30;99.90;;;;;;5041459;28;20124;-68
2022/01/23 16:48:25;;;;;;;33.22;18.48;;;7.30;99.90;;;;;;5043681;28;20052;-69
2022/01/23 16:50:51;;;;;;;35.03;20.02;;;7.30;99.90;;;;;;5043590;28;20057;-71
2022/01/23 16:53:17;;;;;;;21.13;13.32;;;7.30;99.90;;;;;;5042553;28;20041;-66
2022/01/23 16:55:43;;;;;;;17.58;12.27;;;7.20;99.90;;;;;;5042088;28;20072;-66
2022/01/23 16:58:09;;;;;;;16.27;11.07;;;7.30;99.90;;;;;;5044839;28;20077;-65
2022/01/23 17:00:35;;;;;;;29.20;18.92;;;7.30;99.90;;;;;;5043902;28;20121;-66
2022/01/23 17:03:02;;;;;;;16.92;9.90;;;7.30;99.90;;;;;;5040565;28;20049;-65
2022/01/23 17:05:29;;;;;;;17.27;12.95;;;7.20;99.90;;;;;;5040875;28;20043;-66
2022/01/23 17:07:55;;;;;;;12.55;9.27;;;7.30;99.90;;;;;;5041766;28;20550;-66
2022/01/23 17:10:21;;;;;;;18.45;14.82;;;7.30;99.90;;;;;;5024449;28;20492;-68
2022/01/23 17:12:47;;;;;;;14.32;10.63;;;7.30;99.90;;;;;;5040041;28;20077;-60
2022/01/23 17:15:13;;;;;;;10.23;8.27;;;7.30;99.90;;;;;;5041477;28;20109;-66
2022/01/23 17:17:39;;;;;;;10.52;7.88;;;7.30;99.90;;;;;;5024097;28;20068;-63